Time;durP1;ratioP1;P1;durP2;ratioP2;P2;SDS_P1;SDS_P2;PMS_P1;PMS_P2;Temp;Humidity;BMP_temperature;BMP_pressure;BME280_temperature;BME280_humidity;BME280_pressure;Samples;Min_cycle;Max_cycle;Signal;HPM_P1;HPM_P2
2023/01/12 00:02:10;;;;;;;8.75;2.08;;;12.20;54.70;;;;;;5044742;28;20056;-44
2023/01/12 00:04:37;;;;;;;12.32;2.20;;;12.20;54.60;;;;;;5030673;28;20512;-47
2023/01/12 00:07:06;;;;;;;14.50;2.92;;;12.20;54.60;;;;;;5032733;28;20057;-44
2023/01/12 00:09:36;;;;;;;10.70;1.75;;;12.20;54.70;;;;;;5039695;28;20055;-45
2023/01/12 00:12:04;;;;;;;10.18;1.67;;;12.30;54.80;;;;;;5051505;28;20052;-46
2023/01/12 00:14:32;;;;;;;8.07;1.42;;;12.20;54.80;;;;;;5043489;28;20064;-47
2023/01/12 00:17:00;;;;;;;16.73;3.05;;;12.20;54.80;;;;;;5035811;28;20821;-47
2023/01/12 00:19:27;;;;;;;16.40;2.15;;;12.30;54.90;;;;;;5038758;28;20054;-46
2023/01/12 00:22:00;;;;;;;12.20;2.00;;;12.20;54.80;;;;;;5047874;28;20056;-47
2023/01/12 00:24:29;;;;;;;9.63;1.88;;;12.30;54.80;;;;;;5041269;28;20052;-49
2023/01/12 00:26:59;;;;;;;8.00;1.60;;;12.30;54.80;;;;;;5038655;28;20057;-45
2023/01/12 00:29:27;;;;;;;8.25;1.70;;;12.30;54.90;;;;;;5035927;28;20056;-44
2023/01/12 00:31:55;;;;;;;10.52;2.08;;;12.30;54.90;;;;;;5043528;28;20049;-45
2023/01/12 00:34:23;;;;;;;7.10;1.65;;;12.30;54.80;;;;;;5044295;28;20057;-45
2023/01/12 00:36:50;;;;;;;8.75;1.40;;;12.30;54.70;;;;;;5050799;28;20511;-45
2023/01/12 00:39:18;;;;;;;7.93;1.73;;;12.30;54.80;;;;;;5040491;28;20056;-51
2023/01/12 00:47:18;;;;;;;11.60;1.70;;;12.30;54.60;;;;;;5041345;28;20067;-45
2023/01/12 00:49:46;;;;;;;4.78;1.55;;;12.40;54.80;;;;;;5043621;28;20056;-46
2023/01/12 00:52:15;;;;;;;6.22;1.05;;;12.40;54.90;;;;;;5046769;28;20053;-46
2023/01/12 00:54:42;;;;;;;7.78;1.40;;;12.40;54.90;;;;;;5035870;28;20053;-48
2023/01/12 00:57:12;;;;;;;6.68;1.40;;;12.40;54.70;;;;;;5041517;28;20060;-50
2023/01/12 00:59:43;;;;;;;9.90;1.58;;;12.40;54.80;;;;;;5045052;28;20064;-44
2023/01/12 01:02:11;;;;;;;3.97;1.17;;;12.30;54.70;;;;;;5050803;28;20052;-45
2023/01/12 01:04:38;;;;;;;4.72;1.27;;;12.40;54.90;;;;;;5042249;28;20051;-45
2023/01/12 01:07:05;;;;;;;8.23;1.55;;;12.40;55.10;;;;;;5044147;28;20057;-45
2023/01/12 01:09:33;;;;;;;10.68;1.83;;;12.40;55.00;;;;;;5042625;28;20049;-49
2023/01/12 01:12:00;;;;;;;5.15;1.10;;;12.40;55.00;;;;;;5045924;28;20516;-46
2023/01/12 01:14:27;;;;;;;8.95;1.65;;;12.40;55.10;;;;;;5053335;28;20519;-48
2023/01/12 01:16:55;;;;;;;8.80;1.45;;;12.40;55.10;;;;;;5045056;28;20067;-45
2023/01/12 01:19:23;;;;;;;7.07;1.50;;;12.40;55.10;;;;;;5049805;28;20053;-48
2023/01/12 01:21:50;;;;;;;8.50;1.50;;;12.40;55.10;;;;;;5042341;28;20064;-46
2023/01/12 01:24:17;;;;;;;8.27;1.17;;;12.40;55.20;;;;;;5031260;28;20056;-44
2023/01/12 01:26:44;;;;;;;6.05;1.08;;;12.40;55.20;;;;;;5040885;28;20057;-45
2023/01/12 01:29:12;;;;;;;6.95;1.30;;;12.40;55.20;;;;;;5047295;28;20061;-46
2023/01/12 01:31:39;;;;;;;7.10;1.20;;;12.40;55.10;;;;;;5038331;28;20056;-45
2023/01/12 01:34:07;;;;;;;4.85;1.23;;;12.40;55.20;;;;;;5047330;28;21576;-42
2023/01/12 01:36:35;;;;;;;5.10;1.33;;;12.40;55.20;;;;;;5044450;28;20061;-48
2023/01/12 01:39:02;;;;;;;8.30;1.60;;;12.40;55.70;;;;;;5040686;28;20052;-46
2023/01/12 01:41:31;;;;;;;6.72;1.20;;;12.40;55.30;;;;;;5042372;28;20056;-47
2023/01/12 01:44:00;;;;;;;7.32;1.48;;;12.40;55.30;;;;;;5040677;28;20060;-46
2023/01/12 01:46:36;;;;;;;6.70;1.23;;;12.40;55.30;;;;;;5045890;28;20389;-48
2023/01/12 01:49:21;;;;;;;11.77;1.42;;;12.40;55.30;;;;;;5027818;28;20055;-47
2023/01/12 01:51:49;;;;;;;4.95;1.08;;;12.40;55.30;;;;;;5034771;28;20045;-46
2023/01/12 01:54:16;;;;;;;11.60;1.60;;;12.40;55.30;;;;;;5040313;28;20512;-46
2023/01/12 01:56:45;;;;;;;6.22;1.40;;;12.40;55.30;;;;;;5053290;28;20048;-45
2023/01/12 01:59:15;;;;;;;7.55;1.23;;;12.40;55.30;;;;;;5051806;28;20389;-45
2023/01/12 02:01:43;;;;;;;7.03;1.15;;;12.40;55.20;;;;;;5055699;28;20048;-44
2023/01/12 02:04:11;;;;;;;4.60;1.27;;;12.40;55.30;;;;;;5043910;28;20416;-43
2023/01/12 02:06:39;;;;;;;3.88;1.08;;;12.40;55.30;;;;;;5037355;28;20056;-46
2023/01/12 02:09:12;;;;;;;6.03;1.20;;;12.40;55.30;;;;;;5039586;28;20499;-46
2023/01/12 02:17:23;;;;;;;10.88;1.58;;;12.40;55.20;;;;;;5037388;28;20060;-49
2023/01/12 02:20:29;;;;;;;7.80;1.30;;;12.50;55.20;;;;;;5043796;28;20055;-52
2023/01/12 02:23:25;;;;;;;6.95;1.20;;;12.50;55.30;;;;;;5056366;28;20049;-45
2023/01/12 02:26:23;;;;;;;5.68;1.30;;;12.50;55.30;;;;;;5034059;28;20072;-45
2023/01/12 02:29:42;;;;;;;7.78;1.23;;;12.40;55.70;;;;;;5034971;28;20060;-46
2023/01/12 02:32:22;;;;;;;8.55;1.52;;;12.50;55.30;;;;;;5044706;28;20059;-42
2023/01/12 02:35:01;;;;;;;7.25;1.00;;;12.50;55.30;;;;;;5034461;28;20416;-46
2023/01/12 02:37:35;;;;;;;7.15;1.30;;;12.50;55.30;;;;;;5034871;28;20056;-45
2023/01/12 02:40:07;;;;;;;9.52;1.20;;;12.50;55.30;;;;;;5027353;28;20119;-45
2023/01/12 02:42:42;;;;;;;4.70;1.00;;;12.50;55.30;;;;;;5035341;28;20444;-48
2023/01/12 02:45:24;;;;;;;13.80;1.52;;;12.50;55.30;;;;;;5042690;28;20048;-46
2023/01/12 02:47:57;;;;;;;5.22;1.60;;;12.50;55.30;;;;;;5047243;28;20052;-45
2023/01/12 02:50:31;;;;;;;4.10;1.17;;;12.50;55.40;;;;;;5039580;28;20057;-53
2023/01/12 02:53:02;;;;;;;5.03;1.10;;;12.50;55.30;;;;;;5038497;28;20052;-45
2023/01/12 02:55:30;;;;;;;7.18;0.90;;;12.50;55.40;;;;;;5037534;28;20065;-48
2023/01/12 02:58:00;;;;;;;4.10;1.13;;;12.40;55.30;;;;;;5032307;28;20056;-48
2023/01/12 03:00:28;;;;;;;5.80;1.00;;;12.40;55.30;;;;;;5043613;28;20052;-48
2023/01/12 03:02:56;;;;;;;9.30;1.30;;;12.40;55.40;;;;;;5037852;28;20061;-46
2023/01/12 03:05:24;;;;;;;2.95;0.98;;;12.40;55.40;;;;;;5044197;28;20136;-47
2023/01/12 03:07:54;;;;;;;7.32;1.70;;;12.40;55.50;;;;;;5049949;28;20418;-47
2023/01/12 03:10:41;;;;;;;2.70;0.77;;;12.40;55.50;;;;;;5034416;28;20474;-50
2023/01/12 03:13:13;;;;;;;3.88;1.40;;;12.50;55.50;;;;;;5044725;28;20052;-50
2023/01/12 03:15:44;;;;;;;4.45;0.90;;;12.50;55.40;;;;;;5043071;28;20052;-55
2023/01/12 03:18:16;;;;;;;7.15;1.48;;;12.50;55.50;;;;;;5056198;28;20056;-47
2023/01/12 03:20:47;;;;;;;3.47;0.85;;;12.50;55.40;;;;;;5047918;28;20405;-45
2023/01/12 03:23:20;;;;;;;4.65;1.05;;;12.50;55.50;;;;;;5050068;28;20067;-44
2023/01/12 03:25:51;;;;;;;3.55;1.02;;;12.40;55.40;;;;;;5040753;28;20052;-46
2023/01/12 03:28:21;;;;;;;6.00;1.08;;;12.50;55.50;;;;;;5049206;28;20052;-46
2023/01/12 03:30:56;;;;;;;5.50;1.10;;;12.50;55.40;;;;;;5043350;28;20048;-45
2023/01/12 03:33:26;;;;;;;10.43;1.15;;;12.40;55.30;;;;;;5041977;28;20045;-46
2023/01/12 03:36:04;;;;;;;7.25;1.10;;;12.50;55.30;;;;;;5047891;28;20049;-44
2023/01/12 03:38:37;;;;;;;6.38;1.00;;;12.50;55.40;;;;;;5048246;28;20048;-47
2023/01/12 03:41:10;;;;;;;4.50;1.10;;;12.50;55.40;;;;;;5057344;28;20056;-49
2023/01/12 03:43:41;;;;;;;6.15;1.27;;;12.50;55.30;;;;;;5040214;28;20045;-48
2023/01/12 03:46:14;;;;;;;4.00;0.95;;;12.50;55.30;;;;;;5034306;28;20052;-47
2023/01/12 03:48:50;;;;;;;8.07;1.33;;;12.50;55.30;;;;;;5044036;28;20068;-46
2023/01/12 03:51:20;;;;;;;5.40;1.27;;;12.50;55.40;;;;;;5034784;28;20417;-45
2023/01/12 03:53:50;;;;;;;6.45;1.00;;;12.50;55.30;;;;;;5051786;28;20052;-52
2023/01/12 03:56:20;;;;;;;9.10;1.60;;;12.50;55.30;;;;;;5040861;28;20075;-45
2023/01/12 03:58:49;;;;;;;7.57;1.40;;;12.50;55.30;;;;;;5041254;28;20056;-44
2023/01/12 04:01:16;;;;;;;7.47;1.27;;;12.50;55.20;;;;;;5051337;28;20501;-44
2023/01/12 04:03:45;;;;;;;8.48;1.33;;;12.60;55.20;;;;;;5047008;28;20055;-46
2023/01/12 04:06:12;;;;;;;7.00;1.33;;;12.60;55.20;;;;;;5042818;28;20052;-44
2023/01/12 04:08:39;;;;;;;13.02;1.77;;;12.60;55.20;;;;;;5047456;28;20383;-45
2023/01/12 04:13:48;;;;;;;9.18;1.40;;;12.60;55.20;;;;;;5044935;28;20048;-56
2023/01/12 04:16:16;;;;;;;9.40;1.98;;;12.60;55.20;;;;;;5037319;28;20060;-44
2023/01/12 04:18:44;;;;;;;8.73;1.70;;;12.60;55.10;;;;;;5048249;28;20485;-45
2023/01/12 04:23:53;;;;;;;6.93;1.48;;;12.60;55.10;;;;;;5027713;28;20045;-44
2023/01/12 04:26:20;;;;;;;5.38;1.00;;;12.60;55.00;;;;;;5044984;28;20049;-48
2023/01/12 04:28:47;;;;;;;4.55;1.10;;;12.60;55.10;;;;;;5039359;28;20048;-45
2023/01/12 04:31:15;;;;;;;9.63;1.42;;;12.60;55.10;;;;;;5032880;28;20409;-47
2023/01/12 04:33:42;;;;;;;6.00;1.27;;;12.60;55.00;;;;;;5030732;28;20520;-46
2023/01/12 04:36:11;;;;;;;6.50;1.52;;;12.60;55.00;;;;;;5040092;28;20458;-44
2023/01/12 04:38:39;;;;;;;5.13;1.30;;;12.60;54.90;;;;;;5044281;28;20056;-46
2023/01/12 04:41:07;;;;;;;5.50;1.02;;;12.60;54.90;;;;;;5043554;28;20095;-44
2023/01/12 04:43:34;;;;;;;8.20;1.40;;;12.60;54.90;;;;;;5030447;28;20485;-46
2023/01/12 04:46:06;;;;;;;10.20;1.55;;;12.60;54.90;;;;;;5046727;28;20065;-45
2023/01/12 04:48:33;;;;;;;6.82;1.30;;;12.70;54.90;;;;;;5043264;28;20055;-48
2023/01/12 04:51:01;;;;;;;6.82;1.20;;;12.60;54.80;;;;;;5034521;28;20512;-46
2023/01/12 04:53:30;;;;;;;4.88;1.15;;;12.60;54.80;;;;;;5035404;28;20048;-48
2023/01/12 04:55:57;;;;;;;10.95;1.92;;;12.60;54.70;;;;;;5047059;28;20412;-45
2023/01/12 04:58:24;;;;;;;4.43;1.02;;;12.70;54.80;;;;;;5042138;28;20045;-45
2023/01/12 05:00:51;;;;;;;7.03;1.00;;;12.70;54.80;;;;;;5036592;28;20048;-52
2023/01/12 05:03:19;;;;;;;6.93;1.10;;;12.70;54.70;;;;;;5036276;28;20056;-47
2023/01/12 05:05:46;;;;;;;5.22;1.20;;;12.70;54.70;;;;;;5036912;28;20048;-45
2023/01/12 05:11:01;;;;;;;3.83;1.08;;;12.70;54.70;;;;;;5042079;28;21015;-45
2023/01/12 05:13:30;;;;;;;6.20;1.10;;;12.70;54.60;;;;;;5041243;28;20126;-47
2023/01/12 05:16:08;;;;;;;5.13;1.08;;;12.70;54.60;;;;;;5029407;28;20058;-47
2023/01/12 05:18:35;;;;;;;8.30;1.50;;;12.70;54.60;;;;;;5033856;28;20493;-47
2023/01/12 05:21:02;;;;;;;6.63;1.25;;;12.70;54.70;;;;;;5049433;28;20065;-47
2023/01/12 05:23:29;;;;;;;4.05;0.80;;;12.70;54.70;;;;;;5049697;28;20441;-45
2023/01/12 05:26:00;;;;;;;4.95;0.88;;;12.70;54.70;;;;;;5047509;28;20049;-47
2023/01/12 05:28:27;;;;;;;3.72;0.70;;;12.70;54.70;;;;;;4995248;28;20059;-44
2023/01/12 05:30:55;;;;;;;6.65;1.17;;;12.60;54.70;;;;;;4942750;28;20070;-45
2023/01/12 05:33:23;;;;;;;9.88;1.17;;;12.70;54.80;;;;;;4938123;28;20418;-44
2023/01/12 05:35:51;;;;;;;4.85;0.80;;;12.70;54.80;;;;;;4943857;28;20388;-44
2023/01/12 05:38:18;;;;;;;6.78;0.82;;;12.70;54.80;;;;;;4944421;28;20059;-45
2023/01/12 05:40:45;;;;;;;4.07;0.82;;;12.70;54.90;;;;;;4942330;28;20051;-48
2023/01/12 05:46:03;;;;;;;4.10;0.75;;;12.70;54.80;;;;;;4949850;28;20078;-45
2023/01/12 05:48:30;;;;;;;3.55;0.68;;;12.70;54.80;;;;;;4939196;28;20862;-46
2023/01/12 05:51:01;;;;;;;6.25;0.93;;;12.70;54.80;;;;;;4944746;28;20063;-45
2023/01/12 05:53:28;;;;;;;2.30;0.85;;;12.70;54.80;;;;;;4936676;28;20556;-47
2023/01/12 05:55:56;;;;;;;4.10;1.10;;;12.70;54.80;;;;;;4935947;28;20055;-44
2023/01/12 05:58:25;;;;;;;5.10;0.80;;;12.70;54.90;;;;;;4945096;28;20058;-50
2023/01/12 06:00:52;;;;;;;2.88;0.73;;;12.70;55.10;;;;;;4944746;28;20059;-46
2023/01/12 06:03:19;;;;;;;1.73;0.60;;;12.70;55.20;;;;;;4943760;28;20059;-47
2023/01/12 06:05:53;;;;;;;4.63;1.00;;;12.70;55.40;;;;;;4942010;28;20501;-45
2023/01/12 06:08:21;;;;;;;4.03;0.63;;;12.70;55.60;;;;;;4937367;28;20408;-53
2023/01/12 06:10:48;;;;;;;4.68;0.98;;;12.70;55.80;;;;;;4932129;28;20083;-46
2023/01/12 06:16:04;;;;;;;3.40;0.77;;;12.60;55.90;;;;;;4949414;28;20418;-47
2023/01/12 06:18:34;;;;;;;2.85;0.95;;;12.60;56.00;;;;;;4946184;28;20062;-46
2023/01/12 06:21:02;;;;;;;3.80;0.93;;;12.60;56.30;;;;;;4935963;28;20086;-47
2023/01/12 06:23:29;;;;;;;3.42;0.50;;;12.60;56.30;;;;;;4932958;28;20427;-43
2023/01/12 06:26:00;;;;;;;5.03;0.60;;;12.60;56.50;;;;;;4938270;28;20392;-43
2023/01/12 06:28:27;;;;;;;3.80;0.57;;;12.60;56.50;;;;;;4941108;28;20369;-46
2023/01/12 06:30:56;;;;;;;3.70;0.63;;;12.50;56.60;;;;;;4941410;28;20511;-47
2023/01/12 06:33:25;;;;;;;1.60;0.30;;;12.50;56.70;;;;;;4941894;28;20058;-46
2023/01/12 06:35:53;;;;;;;2.08;0.40;;;12.50;56.80;;;;;;4941823;28;20055;-48
2023/01/12 06:38:22;;;;;;;1.80;0.40;;;12.50;56.80;;;;;;4942398;28;20059;-45
2023/01/12 06:40:49;;;;;;;0.57;0.30;;;12.40;56.90;;;;;;4930415;28;20063;-47
2023/01/12 06:43:16;;;;;;;2.35;0.45;;;12.40;56.90;;;;;;4936543;28;20074;-47
2023/01/12 06:45:44;;;;;;;2.45;0.50;;;12.40;56.90;;;;;;4942813;28;20495;-45
2023/01/12 06:48:11;;;;;;;1.95;0.50;;;12.40;57.10;;;;;;4933030;28;20743;-46
2023/01/12 06:50:40;;;;;;;3.22;0.43;;;12.40;57.10;;;;;;4935226;28;20059;-49
2023/01/12 06:53:08;;;;;;;0.50;0.30;;;12.40;57.10;;;;;;4936919;28;20419;-46
2023/01/12 06:55:35;;;;;;;1.77;0.40;;;12.40;57.10;;;;;;4936003;28;20050;-47
2023/01/12 06:58:04;;;;;;;3.95;0.82;;;12.30;57.00;;;;;;4935438;28;20051;-47
2023/01/12 07:00:32;;;;;;;2.00;0.40;;;12.40;57.20;;;;;;4933515;28;20059;-44
2023/01/12 07:02:59;;;;;;;2.72;0.55;;;12.30;57.20;;;;;;4934237;28;20805;-48
2023/01/12 07:05:26;;;;;;;1.73;0.30;;;12.30;57.20;;;;;;4938534;28;20051;-47
2023/01/12 07:07:59;;;;;;;1.60;0.30;;;12.30;57.30;;;;;;4932934;28;20047;-48
2023/01/12 07:10:27;;;;;;;1.88;0.60;;;12.30;57.30;;;;;;4937143;28;20349;-47
2023/01/12 07:12:54;;;;;;;2.88;0.70;;;12.30;57.30;;;;;;4939572;28;20051;-46
2023/01/12 07:15:21;;;;;;;2.08;0.50;;;12.30;57.40;;;;;;4939569;28;20045;-45
2023/01/12 07:17:55;;;;;;;1.60;0.38;;;12.30;57.40;;;;;;4971319;28;20449;-45
2023/01/12 07:20:22;;;;;;;2.33;0.60;;;12.30;57.50;;;;;;4938719;28;20062;-45
2023/01/12 07:22:49;;;;;;;2.72;0.80;;;12.20;57.40;;;;;;4940027;28;20051;-46
2023/01/12 07:25:18;;;;;;;5.18;0.80;;;12.20;57.50;;;;;;4939346;28;20055;-46
2023/01/12 07:27:49;;;;;;;4.07;0.80;;;12.20;57.60;;;;;;4942002;28;20051;-47
2023/01/12 07:30:16;;;;;;;5.70;1.00;;;12.20;57.70;;;;;;4932951;28;20055;-47
2023/01/12 07:32:43;;;;;;;1.88;0.50;;;12.20;57.70;;;;;;4934942;28;20058;-43
2023/01/12 07:35:11;;;;;;;5.30;0.77;;;12.20;57.80;;;;;;4932752;28;20433;-47
2023/01/12 07:37:38;;;;;;;7.47;2.03;;;12.20;57.90;;;;;;4939768;28;20058;-51
2023/01/12 07:40:06;;;;;;;25.38;10.50;;;12.20;57.90;;;;;;4930337;28;20078;-45
2023/01/12 07:42:36;;;;;;;9.95;3.80;;;12.10;58.00;;;;;;4929649;28;20122;-43
2023/01/12 07:45:05;;;;;;;20.98;11.23;;;12.20;58.10;;;;;;4938048;28;20059;-46
2023/01/12 07:47:32;;;;;;;6.43;1.85;;;12.10;58.20;;;;;;4939544;28;20521;-46
2023/01/12 07:49:59;;;;;;;8.88;1.90;;;12.10;58.30;;;;;;4930890;28;20070;-44
2023/01/12 07:52:26;;;;;;;5.22;2.15;;;12.10;58.40;;;;;;4935784;28;20416;-44
2023/01/12 07:54:53;;;;;;;7.28;1.67;;;12.10;58.50;;;;;;4940531;28;20051;-49
2023/01/12 07:57:21;;;;;;;3.15;1.20;;;12.10;58.60;;;;;;4939256;28;20059;-45
2023/01/12 07:59:49;;;;;;;7.65;2.25;;;12.10;58.70;;;;;;4943744;28;20495;-45
2023/01/12 08:02:18;;;;;;;4.63;1.48;;;12.20;58.90;;;;;;4937039;28;20063;-47
2023/01/12 08:04:46;;;;;;;11.20;2.28;;;12.20;58.90;;;;;;4934149;28;20526;-44
2023/01/12 08:25:06;;;;;;;6.07;1.23;;;12.20;59.30;;;;;;4978130;28;20046;-48
2023/01/12 08:27:37;;;;;;;5.30;1.10;;;12.20;59.40;;;;;;4990224;28;20054;-48
2023/01/12 08:30:07;;;;;;;6.55;1.40;;;12.20;59.40;;;;;;4998937;28;20050;-48
2023/01/12 08:32:36;;;;;;;7.03;1.10;;;12.20;59.50;;;;;;4999633;28;20050;-48
2023/01/12 08:35:04;;;;;;;4.38;1.40;;;12.20;59.70;;;;;;4999072;28;20494;-48
2023/01/12 08:37:34;;;;;;;4.28;0.80;;;12.20;59.70;;;;;;4998064;28;20053;-48
2023/01/12 08:40:02;;;;;;;6.55;1.30;;;12.20;59.80;;;;;;4999125;28;20062;-47
2023/01/12 08:42:31;;;;;;;6.85;1.00;;;12.20;59.80;;;;;;5000423;28;20517;-47
2023/01/12 08:44:59;;;;;;;5.13;1.00;;;12.20;59.80;;;;;;5001116;28;20383;-50
2023/01/12 08:47:29;;;;;;;6.45;1.00;;;12.20;59.80;;;;;;5000508;28;20418;-46
2023/01/12 08:49:58;;;;;;;6.07;0.95;;;12.30;59.90;;;;;;4997723;28;20058;-52
2023/01/12 08:52:28;;;;;;;4.57;0.90;;;12.30;59.90;;;;;;4997937;28;20061;-45
2023/01/12 08:54:55;;;;;;;2.55;0.70;;;12.30;59.90;;;;;;4997345;28;20505;-43
2023/01/12 08:57:22;;;;;;;5.13;0.70;;;12.30;59.90;;;;;;5001475;28;20045;-50
2023/01/12 08:59:51;;;;;;;4.25;0.75;;;12.30;59.90;;;;;;4997635;28;20061;-45
2023/01/12 09:02:18;;;;;;;4.90;0.80;;;12.30;60.00;;;;;;5002126;28;20057;-48
2023/01/12 09:04:45;;;;;;;5.57;0.60;;;12.30;60.00;;;;;;4999556;28;20054;-48
2023/01/12 09:07:15;;;;;;;4.18;1.05;;;12.40;60.00;;;;;;5003405;28;20058;-48
2023/01/12 09:09:43;;;;;;;5.90;0.95;;;12.40;60.10;;;;;;5003850;28;20081;-46
2023/01/12 09:12:10;;;;;;;2.53;0.60;;;12.40;60.00;;;;;;5001974;28;20046;-43
2023/01/12 09:14:38;;;;;;;4.43;0.75;;;12.40;60.00;;;;;;5004961;28;20050;-45
2023/01/12 09:17:07;;;;;;;1.75;0.60;;;12.40;60.00;;;;;;5002892;28;20050;-45
2023/01/12 09:19:34;;;;;;;3.75;0.50;;;12.40;59.90;;;;;;5001706;28;20072;-51
2023/01/12 09:22:02;;;;;;;4.32;0.68;;;12.50;60.00;;;;;;5004349;28;20056;-46
2023/01/12 09:24:29;;;;;;;2.25;0.57;;;12.50;60.00;;;;;;5003270;28;20061;-44
2023/01/12 09:26:57;;;;;;;2.55;0.60;;;12.50;60.00;;;;;;4942332;28;20052;-44
2023/01/12 09:29:24;;;;;;;1.90;0.38;;;12.50;60.10;;;;;;4944228;28;20056;-45
2023/01/12 09:31:51;;;;;;;3.47;0.50;;;12.50;60.00;;;;;;4944372;28;20064;-44
2023/01/12 09:34:20;;;;;;;3.85;1.00;;;12.50;60.00;;;;;;4945413;28;20051;-47
2023/01/12 09:36:51;;;;;;;1.30;0.50;;;12.60;60.10;;;;;;4948532;28;20055;-45
2023/01/12 09:39:18;;;;;;;5.10;0.93;;;12.60;60.00;;;;;;4942471;28;20054;-44
2023/01/12 09:47:27;;;;;;;2.25;0.40;;;12.60;60.00;;;;;;4945124;28;20522;-43
2023/01/12 09:50:00;;;;;;;3.13;0.50;;;12.60;60.10;;;;;;4976272;28;20055;-46
2023/01/12 09:52:30;;;;;;;2.08;0.85;;;12.60;60.10;;;;;;4978561;28;20529;-43
2023/01/12 09:54:58;;;;;;;2.15;0.73;;;12.60;60.10;;;;;;4945916;28;20126;-49
2023/01/12 09:58:03;;;;;;;2.65;0.77;;;12.70;60.20;;;;;;4946921;28;20054;-46
2023/01/12 10:00:30;;;;;;;1.17;0.50;;;12.70;60.50;;;;;;4959489;28;20063;-46
2023/01/12 10:03:09;;;;;;;3.10;0.60;;;12.70;60.30;;;;;;4948248;28;20054;-48
2023/01/12 10:05:45;;;;;;;3.08;0.60;;;12.70;60.30;;;;;;4940550;28;20051;-46
2023/01/12 10:08:22;;;;;;;2.40;0.50;;;12.70;60.20;;;;;;4939016;28;20067;-47
2023/01/12 10:11:04;;;;;;;6.05;0.52;;;12.80;60.30;;;;;;4944774;28;20063;-47
2023/01/12 10:13:47;;;;;;;1.75;0.40;;;12.80;61.10;;;;;;4945090;28;20055;-47
2023/01/12 10:16:21;;;;;;;3.23;1.07;;;12.80;60.40;;;;;;4943170;28;20356;-49
2023/01/12 10:18:51;;;;;;;2.17;0.88;;;12.80;60.90;;;;;;4945054;28;20896;-47
2023/01/12 10:21:23;;;;;;;4.13;0.90;;;12.80;60.20;;;;;;4947469;28;20059;-47
2023/01/12 10:23:53;;;;;;;2.88;0.93;;;12.80;60.20;;;;;;4942110;28;20059;-47
2023/01/12 10:26:22;;;;;;;2.17;0.60;;;12.90;60.30;;;;;;4945530;28;20059;-45
2023/01/12 10:28:53;;;;;;;3.60;0.65;;;12.90;60.40;;;;;;4944597;28;20066;-47
2023/01/12 10:31:23;;;;;;;1.05;0.47;;;12.90;60.40;;;;;;4944457;28;20411;-47
2023/01/12 10:34:05;;;;;;;2.08;0.55;;;12.90;60.30;;;;;;4947273;28;20055;-47
2023/01/12 10:36:35;;;;;;;1.02;0.50;;;12.90;60.40;;;;;;4942395;28;20077;-47
2023/01/12 10:39:04;;;;;;;0.82;0.43;;;12.90;60.40;;;;;;4944340;28;20521;-51
2023/01/12 10:41:36;;;;;;;2.25;0.45;;;12.90;60.30;;;;;;4945749;28;20062;-47
2023/01/12 10:44:14;;;;;;;2.90;0.40;;;12.90;60.30;;;;;;4944290;28;20126;-43
2023/01/12 10:46:41;;;;;;;1.17;0.50;;;12.90;61.10;;;;;;4945544;28;20055;-46
2023/01/12 10:49:17;;;;;;;0.77;0.30;;;12.90;60.30;;;;;;4944676;28;20058;-49
2023/01/12 10:51:53;;;;;;;3.42;0.30;;;12.90;60.30;;;;;;4944119;28;20055;-50
2023/01/12 10:54:23;;;;;;;1.38;0.43;;;13.00;60.30;;;;;;4942702;28;20063;-48
2023/01/12 10:56:57;;;;;;;1.52;0.60;;;13.00;60.20;;;;;;4944328;28;20526;-45
2023/01/12 10:59:28;;;;;;;2.33;0.43;;;13.00;60.20;;;;;;4944388;28;20058;-46
2023/01/12 11:02:14;;;;;;;1.17;0.30;;;13.00;60.30;;;;;;4941394;28;20059;-54
2023/01/12 11:04:43;;;;;;;1.92;0.50;;;13.00;60.10;;;;;;4941722;28;20059;-47
2023/01/12 11:07:13;;;;;;;1.60;0.40;;;13.00;60.00;;;;;;4938673;28;20412;-54
2023/01/12 11:09:41;;;;;;;0.80;0.43;;;13.10;60.00;;;;;;4939719;28;20418;-52
2023/01/12 11:12:23;;;;;;;3.38;0.28;;;13.00;60.60;;;;;;4939294;28;20060;-46
2023/01/12 11:15:02;;;;;;;3.25;0.32;;;13.10;60.70;;;;;;4945071;28;20059;-46
2023/01/12 11:17:44;;;;;;;2.08;0.30;;;13.10;60.00;;;;;;4931034;28;20411;-51
2023/01/12 11:20:20;;;;;;;3.17;0.40;;;13.10;59.90;;;;;;4933942;28;20075;-49
2023/01/12 11:22:54;;;;;;;1.25;0.38;;;13.10;59.90;;;;;;4935724;28;20138;-49
2023/01/12 11:25:24;;;;;;;2.28;0.47;;;13.10;59.90;;;;;;4938509;28;20051;-46
2023/01/12 11:27:55;;;;;;;0.60;0.20;;;13.20;59.90;;;;;;4937886;28;20062;-46
2023/01/12 11:30:30;;;;;;;1.05;0.22;;;13.20;59.80;;;;;;4942039;28;20415;-54
2023/01/12 11:32:59;;;;;;;7.28;1.15;;;13.20;59.70;;;;;;4951543;28;20049;-50
2023/01/12 11:35:33;;;;;;;0.80;0.40;;;13.20;59.70;;;;;;4959160;28;20055;-52
2023/01/12 11:38:10;;;;;;;2.45;0.88;;;13.20;59.60;;;;;;4964940;28;20403;-46
2023/01/12 11:40:39;;;;;;;1.42;0.40;;;13.20;59.60;;;;;;4942513;28;20071;-47
2023/01/12 11:46:16;;;;;;;1.60;0.43;;;13.20;59.50;;;;;;4938710;28;20054;-45
2023/01/12 11:48:49;;;;;;;3.60;0.40;;;13.30;59.60;;;;;;4942394;29;20063;-50
2023/01/12 11:51:17;;;;;;;1.60;0.50;;;13.30;59.50;;;;;;4977009;28;20066;-48
2023/01/12 11:53:46;;;;;;;1.73;0.43;;;13.30;59.40;;;;;;4941456;28;20067;-52
2023/01/12 11:56:28;;;;;;;3.80;0.65;;;13.30;59.40;;;;;;4942526;28;20056;-48
2023/01/12 11:59:02;;;;;;;0.95;0.50;;;13.30;59.40;;;;;;4942241;28;20066;-51
2023/01/12 12:01:38;;;;;;;4.22;0.68;;;13.30;59.60;;;;;;4946161;28;20051;-54
2023/01/12 12:04:13;;;;;;;2.75;1.00;;;13.40;59.20;;;;;;4943338;28;20058;-44
2023/01/12 12:06:59;;;;;;;1.88;0.60;;;13.40;59.10;;;;;;4948797;28;20059;-54
2023/01/12 12:09:45;;;;;;;3.13;0.80;;;13.40;59.00;;;;;;4952226;28;20495;-47
2023/01/12 12:12:21;;;;;;;2.75;1.23;;;13.40;59.00;;;;;;4964678;28;20070;-46
2023/01/12 12:15:01;;;;;;;2.40;0.80;;;13.40;59.00;;;;;;4935645;28;20055;-46
2023/01/12 12:17:38;;;;;;;2.97;0.90;;;13.50;59.00;;;;;;4940366;28;20499;-53
2023/01/12 12:20:13;;;;;;;3.63;1.33;;;13.50;59.00;;;;;;4944324;28;20384;-52
2023/01/12 12:22:56;;;;;;;3.03;1.15;;;13.50;58.90;;;;;;4940191;28;20067;-54
2023/01/12 12:25:32;;;;;;;2.90;1.08;;;13.50;59.10;;;;;;4942765;28;20493;-52
2023/01/12 12:28:25;;;;;;;4.53;1.05;;;13.50;59.10;;;;;;4967406;28;20060;-48
2023/01/12 12:31:03;;;;;;;1.40;0.77;;;13.50;59.10;;;;;;4954341;28;20400;-52
2023/01/12 12:33:42;;;;;;;1.88;0.70;;;13.50;59.10;;;;;;4943133;28;20063;-53
2023/01/12 12:36:18;;;;;;;1.92;0.70;;;13.50;59.10;;;;;;4941429;28;20059;-51
2023/01/12 12:39:09;;;;;;;1.80;0.52;;;13.50;59.20;;;;;;4940751;28;20105;-45
2023/01/12 12:47:42;;;;;;;2.63;1.38;;;13.50;59.30;;;;;;4944065;28;20054;-46
2023/01/12 12:50:18;;;;;;;1.45;1.00;;;13.50;59.30;;;;;;4938389;28;20063;-53
2023/01/12 12:52:48;;;;;;;2.70;1.73;;;13.50;59.20;;;;;;4940476;28;20606;-48
2023/01/12 12:55:16;;;;;;;2.17;0.90;;;13.50;59.60;;;;;;4930813;28;20066;-49
2023/01/12 12:58:02;;;;;;;3.05;1.00;;;13.60;59.20;;;;;;4935233;28;20168;-49
2023/01/12 13:00:41;;;;;;;2.08;1.10;;;13.60;59.20;;;;;;4943113;28;20066;-48
2023/01/12 13:03:08;;;;;;;2.65;1.00;;;13.60;59.30;;;;;;4936443;28;20055;-50
2023/01/12 13:05:44;;;;;;;1.98;0.80;;;13.50;59.30;;;;;;4936736;28;20062;-50
2023/01/12 13:08:21;;;;;;;2.47;1.02;;;13.60;59.30;;;;;;4942288;28;20051;-49
2023/01/12 13:10:51;;;;;;;1.70;1.15;;;13.50;59.30;;;;;;4936683;28;20457;-47
2023/01/12 13:13:30;;;;;;;2.38;1.05;;;13.60;59.40;;;;;;4933165;28;20062;-48
2023/01/12 13:16:37;;;;;;;1.95;0.98;;;13.60;59.40;;;;;;4931814;28;20064;-49
2023/01/12 13:19:07;;;;;;;1.42;0.80;;;13.50;59.40;;;;;;4960294;28;20059;-48
2023/01/12 13:21:55;;;;;;;2.58;0.85;;;13.60;59.40;;;;;;4941648;28;20495;-48
2023/01/12 13:24:27;;;;;;;1.67;0.68;;;13.60;59.50;;;;;;4934306;28;20055;-47
2023/01/12 13:26:57;;;;;;;2.00;0.80;;;13.60;59.60;;;;;;4938854;28;20102;-47
2023/01/12 13:29:43;;;;;;;1.92;0.82;;;13.60;59.60;;;;;;4937017;28;20059;-46
2023/01/12 13:32:43;;;;;;;1.77;0.85;;;13.60;59.70;;;;;;4935068;28;20059;-47
2023/01/12 13:35:51;;;;;;;1.60;0.70;;;13.50;59.70;;;;;;4931267;28;20392;-45
2023/01/12 13:38:28;;;;;;;3.78;1.42;;;13.60;59.80;;;;;;4951412;28;20047;-49
2023/01/12 13:41:02;;;;;;;1.60;1.08;;;13.60;59.70;;;;;;4959876;28;20060;-50
2023/01/12 13:43:32;;;;;;;6.22;2.15;;;13.50;59.60;;;;;;4935159;28;20511;-46
2023/01/12 13:46:04;;;;;;;4.05;2.13;;;13.50;59.60;;;;;;4929076;28;20051;-47
2023/01/12 13:48:34;;;;;;;6.70;2.03;;;13.50;59.60;;;;;;4930567;28;20052;-51
2023/01/12 13:51:06;;;;;;;2.90;1.50;;;13.60;59.60;;;;;;4932737;28;20421;-47
2023/01/12 13:56:58;;;;;;;2.60;0.90;;;13.60;59.60;;;;;;5048632;28;20397;-47
2023/01/12 13:59:28;;;;;;;2.85;1.20;;;13.50;59.50;;;;;;4947519;28;20055;-50
2023/01/12 14:01:58;;;;;;;2.08;0.80;;;13.60;59.40;;;;;;4932987;28;20063;-48
2023/01/12 14:04:44;;;;;;;1.10;0.65;;;13.60;59.40;;;;;;4934543;28;20055;-51
2023/01/12 14:07:22;;;;;;;1.00;0.55;;;13.60;59.40;;;;;;4939347;28;20518;-50
2023/01/12 14:10:00;;;;;;;1.20;0.55;;;13.60;59.30;;;;;;4934528;28;20396;-55